Time;durP1;ratioP1;P1;durP2;ratioP2;P2;SDS_P1;SDS_P2;PMS_P1;PMS_P2;Temp;Humidity;BMP_temperature;BMP_pressure;BME280_temperature;BME280_humidity;BME280_pressure;Samples;Min_cycle;Max_cycle;Signal;HPM_P1;HPM_P2
2022/05/21 00:03:47;;;;;;;6.53;1.80;;;;;;;;;;4768537;30;20057;-81
2022/05/21 00:19:40;;;;;;;5.30;2.38;;;;;;;;;;4831566;29;20038;-81
2022/05/21 00:28:39;;;;;;;;;;;;;;;;;;;;;
2022/05/21 00:38:41;;;;;;;;;;;;;;;;;;;;;
2022/05/21 00:44:32;;;;;;;;;;;;;;;;;;;;;
2022/05/21 00:50:24;;;;;;;;;;;;;;;;;;;;;
2022/05/21 01:15:20;;;;;;;;;;;;;;;;;;;;;
2022/05/21 01:27:55;;;;;;;4.85;1.90;;;;;;;;;;4821951;29;20518;-82
2022/05/21 01:40:25;;;;;;;;;;;;;;;;;;;;;
2022/05/21 01:59:15;;;;;;;;;;;;;;;;;;;;;
2022/05/21 02:05:20;;;;;;;4.55;1.90;;;;;;;;;;4913970;29;20125;-81
2022/05/21 02:08:10;;;;;;;;;;;;;;;;;;;;;
2022/05/21 02:14:27;;;;;;;3.95;2.00;;;;;;;;;;5051542;28;20040;-81
2022/05/21 02:17:20;;;;;;;7.15;3.00;;;;;;;;;;5051630;28;20025;-81
2022/05/21 02:29:31;;;;;;;;;;;;;;;;;;;;;
2022/05/21 02:32:16;;;;;;;6.22;2.65;;;;;;;;;;4990622;28;20274;-81
2022/05/21 02:35:11;;;;;;;;;;;;;;;;;;;;;
2022/05/21 02:40:24;;;;;;;5.10;2.53;;;;;;;;;;4990547;28;20048;-83
2022/05/21 02:42:50;;;;;;;8.20;2.60;;;;;;;;;;5023692;28;20041;-81
2022/05/21 02:45:18;;;;;;;7.97;3.45;;;;;;;;;;5051664;28;20028;-80
2022/05/21 02:51:17;;;;;;;5.90;2.80;;;;;;;;;;4990261;28;20543;-85
2022/05/21 02:57:30;;;;;;;;;;;;;;;;;;;;;
2022/05/21 02:59:56;;;;;;;4.90;2.60;;;;;;;;;;4916691;29;20036;-82
2022/05/21 03:02:42;;;;;;;4.13;2.10;;;;;;;;;;4940216;29;20043;-82
2022/05/21 03:05:19;;;;;;;8.63;2.65;;;;;;;;;;4947385;29;20036;-82
2022/05/21 03:10:59;;;;;;;;;;;;;;;;;;4955529;29;20042;-79
2022/05/21 03:13:30;;;;;;;5.30;2.10;;;;;;;;;;4954778;29;20005;-79
2022/05/21 03:25:30;;;;;;;;;;;;;;;;;;;;;
2022/05/21 03:34:51;;;;;;;6.53;2.83;;;;;;;;;;4879502;29;20032;-82
2022/05/21 03:37:26;;;;;;;10.27;4.25;;;;;;;;;;4897489;29;20032;-82
2022/05/21 03:40:44;;;;;;;5.53;2.72;;;;;;;;;;4931643;29;20051;-80
2022/05/21 03:46:56;;;;;;;;;;;;;;;;;;;;;
2022/05/21 03:52:32;;;;;;;;;;;;;;;;;;;;;
2022/05/21 03:58:29;;;;;;;;;;;;;;;;;;;;;
2022/05/21 04:05:14;;;;;;;;;;;;;;;;;;;;;
2022/05/21 04:07:31;;;;;;;8.50;4.00;;;;;;;;;;4963164;28;20402;-83
2022/05/21 04:10:09;;;;;;;6.65;3.28;;;;;;;;;;4973309;28;20034;-81
2022/05/21 04:12:58;;;;;;;6.28;3.10;;;;;;;;;;4956620;28;20125;-81
2022/05/21 04:15:30;;;;;;;12.77;8.38;;;;;;;;;;4956725;28;20030;-83
2022/05/21 04:21:40;;;;;;;5.57;2.72;;;;;;;;;;4920311;29;20039;-81
2022/05/21 04:27:01;;;;;;;7.45;3.55;;;;;;;;;;4992575;28;20027;-82
2022/05/21 04:29:47;;;;;;;4.90;2.90;;;;;;;;;;4976073;28;20023;-82
2022/05/21 04:32:33;;;;;;;57.15;41.38;;;;;;;;;;4965973;28;20113;-82
2022/05/21 04:38:48;;;;;;;;;;;;;;;;;;;;;
2022/05/21 04:44:47;;;;;;;6.75;4.90;;;;;;;;;;4839254;29;20053;-81
2022/05/21 04:47:21;;;;;;;4.65;2.35;;;;;;;;;;4877250;29;20421;-83
2022/05/21 04:49:53;;;;;;;5.38;2.30;;;;;;;;;;4919114;29;20031;-82
2022/05/21 04:52:39;;;;;;;;;;;;;;;;;;;;;
2022/05/21 05:01:30;;;;;;;5.65;3.00;;;;;;;;;;5030842;28;20029;-81
2022/05/21 05:07:36;;;;;;;;;;;;;;;;;;;;;
2022/05/21 05:23:16;;;;;;;;;;;;;;;;;;;;;
2022/05/21 05:25:42;;;;;;;4.57;2.38;;;;;;;;;;5033114;28;20021;-81
2022/05/21 05:28:19;;;;;;;46.05;31.65;;;;;;;;;;5015135;28;20017;-79
2022/05/21 05:30:49;;;;;;;24.67;15.98;;;;;;;;;;5015795;28;20029;-80
2022/05/21 05:33:16;;;;;;;11.15;7.68;;;;;;;;;;5030452;28;20399;-83
2022/05/21 05:35:42;;;;;;;6.35;3.17;;;;;;;;;;5048503;28;20028;-81
2022/05/21 05:38:10;;;;;;;6.55;2.38;;;;;;;;;;5052658;28;20032;-79
2022/05/21 05:40:36;;;;;;;3.35;2.28;;;;;;;;;;5052119;28;20033;-77
2022/05/21 05:43:03;;;;;;;7.28;2.78;;;;;;;;;;5052022;28;20036;-87
2022/05/21 05:45:30;;;;;;;5.25;2.20;;;;;;;;;;5052163;28;20017;-80
2022/05/21 05:47:56;;;;;;;4.45;2.00;;;;;;;;;;5052387;28;20171;-85
2022/05/21 05:50:22;;;;;;;6.45;2.13;;;;;;;;;;5051837;28;20047;-79
2022/05/21 05:52:48;;;;;;;4.13;2.25;;;;;;;;;;5069529;28;20099;-80
2022/05/21 05:55:14;;;;;;;11.60;2.78;;;;;;;;;;5071977;28;20098;-80
2022/05/21 05:57:41;;;;;;;3.55;1.83;;;;;;;;;;5072011;28;20028;-79
2022/05/21 06:00:08;;;;;;;3.47;1.98;;;;;;;;;;5071776;28;20043;-81
2022/05/21 06:05:18;;;;;;;;;;;;;;;;;;5046050;28;20175;-81
2022/05/21 06:07:45;;;;;;;5.43;2.08;;;;;;;;;;5051558;28;20003;-82
2022/05/21 06:10:13;;;;;;;5.82;2.13;;;;;;;;;;5055777;28;20025;-82
2022/05/21 06:12:39;;;;;;;11.00;8.20;;;;;;;;;;5071654;28;20138;-82
2022/05/21 06:15:05;;;;;;;23.13;18.05;;;;;;;;;;5071961;28;20025;-82
2022/05/21 06:17:31;;;;;;;4.03;3.00;;;;;;;;;;5071863;28;20029;-82
2022/05/21 06:19:58;;;;;;;4.35;2.10;;;;;;;;;;5071688;28;20062;-84
2022/05/21 06:22:24;;;;;;;4.43;3.10;;;;;;;;;;5072001;28;20066;-85
2022/05/21 06:24:51;;;;;;;5.78;4.13;;;;;;;;;;5071636;28;20025;-80
2022/05/21 06:27:17;;;;;;;11.63;8.32;;;;;;;;;;5054211;28;20024;-83
2022/05/21 06:29:43;;;;;;;5.00;2.53;;;;;;;;;;5075021;28;20493;-84
2022/05/21 06:32:09;;;;;;;3.75;1.98;;;;;;;;;;5076027;28;20032;-82
2022/05/21 06:34:37;;;;;;;4.95;2.03;;;;;;;;;;5075732;28;20024;-81
2022/05/21 06:37:07;;;;;;;12.15;8.70;;;;;;;;;;5075797;28;20036;-80
2022/05/21 06:39:34;;;;;;;16.10;12.15;;;;;;;;;;5057550;28;20025;-82
2022/05/21 06:42:01;;;;;;;6.43;2.85;;;;;;;;;;5057626;28;20056;-79
2022/05/21 06:44:30;;;;;;;3.58;2.00;;;;;;;;;;5075546;28;20017;-81
2022/05/21 06:46:56;;;;;;;3.42;1.98;;;;;;;;;;5075438;28;20024;-80
2022/05/21 06:49:23;;;;;;;4.38;1.98;;;;;;;;;;5075994;28;20144;-83
2022/05/21 06:51:52;;;;;;;3.90;2.22;;;;;;;;;;5075558;28;20516;-81
2022/05/21 06:54:18;;;;;;;4.78;2.13;;;;;;;;;;5075393;28;20036;-83
2022/05/21 06:56:47;;;;;;;19.20;3.65;;;;;;;;;;5056964;28;20049;-82
2022/05/21 06:59:16;;;;;;;6.15;2.38;;;;;;;;;;5075428;28;20391;-83
2022/05/21 07:01:42;;;;;;;4.35;2.10;;;;;;;;;;5074604;28;20460;-83
2022/05/21 07:04:09;;;;;;;4.68;1.88;;;;;;;;;;5057232;28;20372;-82
2022/05/21 07:09:28;;;;;;;3.67;1.90;;;;;;;;;;5074936;28;20031;-82
2022/05/21 07:11:54;;;;;;;4.07;2.05;;;;;;;;;;5056898;28;20086;-82
2022/05/21 07:14:20;;;;;;;5.53;2.75;;;;;;;;;;5057163;28;20056;-85
2022/05/21 07:16:48;;;;;;;5.10;1.65;;;;;;;;;;5074909;28;20034;-84
2022/05/21 07:19:14;;;;;;;3.88;2.45;;;;;;;;;;5074859;28;20027;-84
2022/05/21 07:21:46;;;;;;;3.47;1.60;;;;;;;;;;5040376;28;20096;-83
2022/05/21 07:24:15;;;;;;;2.83;1.75;;;;;;;;;;5056372;28;20112;-81
2022/05/21 07:26:46;;;;;;;4.25;2.03;;;;;;;;;;5073286;28;20589;-81
2022/05/21 07:29:13;;;;;;;3.35;1.98;;;;;;;;;;5063441;28;20029;-83
2022/05/21 07:31:39;;;;;;;5.13;2.33;;;;;;;;;;5074680;28;20024;-84
2022/05/21 07:34:12;;;;;;;5.95;2.10;;;;;;;;;;5060991;28;20029;-83
2022/05/21 07:36:38;;;;;;;3.95;1.80;;;;;;;;;;5070424;28;20029;-81
2022/05/21 07:39:07;;;;;;;4.97;2.00;;;;;;;;;;5055726;28;20024;-84
2022/05/21 07:41:33;;;;;;;4.13;1.73;;;;;;;;;;5056725;28;20041;-82
2022/05/21 07:44:26;;;;;;;4.22;2.40;;;;;;;;;;5074231;28;20024;-82
2022/05/21 07:46:52;;;;;;;5.72;2.65;;;;;;;;;;5072589;28;20082;-81
2022/05/21 07:49:18;;;;;;;4.88;2.17;;;;;;;;;;5074291;28;20021;-80
2022/05/21 07:51:51;;;;;;;4.95;2.30;;;;;;;;;;5074091;28;20040;-81
2022/05/21 07:54:27;;;;;;;;;;;;;;;;;;;;;
2022/05/21 07:57:35;;;;;;;;;;;;;;;;;;;;;
2022/05/21 08:16:03;;;;;;;;;;;;;;;;;;;;;
2022/05/21 08:18:49;;;;;;;3.55;1.30;;;;;;;;;;4877633;29;20599;-84
2022/05/21 08:21:44;;;;;;;3.78;1.60;;;;;;;;;;4905493;29;20051;-81
2022/05/21 08:27:01;;;;;;;5.20;1.80;;;;;;;;;;4915253;29;20511;-82
2022/05/21 08:30:07;;;;;;;4.88;1.90;;;;;;;;;;4917583;29;20604;-80
2022/05/21 08:33:03;;;;;;;6.03;3.05;;;;;;;;;;4950862;28;20508;-81
2022/05/21 08:35:47;;;;;;;9.07;7.35;;;;;;;;;;4953234;29;20102;-81
2022/05/21 08:38:36;;;;;;;2.72;1.90;;;;;;;;;;4947653;28;20047;-79
2022/05/21 08:41:21;;;;;;;3.70;1.55;;;;;;;;;;4991518;28;20105;-79
2022/05/21 08:44:06;;;;;;;4.13;1.23;;;;;;;;;;5027123;28;20033;-85
2022/05/21 08:46:32;;;;;;;;;;;;;;;;;;5053446;28;20104;-78
2022/05/21 08:49:04;;;;;;;4.15;1.70;;;;;;;;;;5054556;28;19947;-79
2022/05/21 08:51:37;;;;;;;3.53;2.05;;;;;;;;;;5072383;28;20031;-82
2022/05/21 08:54:04;;;;;;;4.47;1.50;;;;;;;;;;5073069;28;20028;-80
2022/05/21 08:56:31;;;;;;;2.92;1.50;;;;;;;;;;5055430;28;20037;-81
2022/05/21 08:59:01;;;;;;;4.35;1.40;;;;;;;;;;5067810;28;20024;-86
2022/05/21 09:01:27;;;;;;;3.80;1.50;;;;;;;;;;5063474;28;20083;-86
2022/05/21 09:03:56;;;;;;;4.55;1.55;;;;;;;;;;5052728;28;20374;-84
2022/05/21 09:06:25;;;;;;;5.65;2.20;;;;;;;;;;5052977;28;20029;-82
2022/05/21 09:13:00;;;;;;;;;;;;;;;;;;;;;
2022/05/21 09:23:18;;;;;;;;;;;;;;;;;;;;;
2022/05/21 09:32:38;;;;;;;4.43;1.80;;;;;;;;;;4759872;30;20032;-84
2022/05/21 09:41:44;;;;;;;4.38;1.40;;;;;;;;;;4766928;30;20032;-82
2022/05/21 09:47:20;;;;;;;8.65;5.25;;;;;;;;;;4895833;29;20657;-81
2022/05/21 09:50:19;;;;;;;3.40;1.30;;;;;;;;;;4857984;29;20041;-81
2022/05/21 09:52:51;;;;;;;3.15;1.65;;;;;;;;;;4867746;29;20037;-81
2022/05/21 09:55:27;;;;;;;3.72;1.77;;;;;;;;;;4876421;29;20053;-86
2022/05/21 09:57:54;;;;;;;4.82;1.45;;;;;;;;;;4881676;28;20549;-83
2022/05/21 10:00:29;;;;;;;4.40;2.03;;;;;;;;;;5004336;28;20460;-87
2022/05/21 10:03:00;;;;;;;3.63;1.45;;;;;;;;;;4997747;28;20030;-82
2022/05/21 10:05:47;;;;;;;4.93;1.77;;;;;;;;;;5000576;28;20034;-86
2022/05/21 10:11:44;;;;;;;2.63;1.15;;;;;;;;;;5016620;28;20092;-83
2022/05/21 10:14:14;;;;;;;3.33;1.35;;;;;;;;;;4999705;28;20034;-83
2022/05/21 10:17:12;;;;;;;3.58;1.60;;;;;;;;;;5000174;28;20037;-84
2022/05/21 10:20:07;;;;;;;;;;;;;;;;;;;;;
2022/05/21 10:23:00;;;;;;;4.65;1.83;;;;;;;;;;5058645;28;20479;-83
2022/05/21 10:25:50;;;;;;;4.10;1.35;;;;;;;;;;5043232;28;20041;-85
2022/05/21 10:28:26;;;;;;;2.72;1.60;;;;;;;;;;5037925;28;20051;-81
2022/05/21 10:33:59;;;;;;;5.45;2.17;;;;;;;;;;5018055;28;20048;-85
2022/05/21 10:43:06;;;;;;;;;;;;;;;;;;;;;
2022/05/21 10:45:39;;;;;;;3.65;1.25;;;;;;;;;;4977505;28;20041;-83
2022/05/21 10:48:37;;;;;;;4.78;1.88;;;;;;;;;;4977048;28;20050;-83
2022/05/21 10:51:15;;;;;;;3.70;1.50;;;;;;;;;;4957891;28;20030;-84
2022/05/21 10:53:44;;;;;;;3.55;1.65;;;;;;;;;;4961747;28;20398;-84
2022/05/21 10:56:34;;;;;;;4.90;1.50;;;;;;;;;;4961315;28;20050;-82
2022/05/21 10:59:49;;;;;;;;;;;;;;;;;;;;;
2022/05/21 11:05:51;;;;;;;2.63;1.25;;;;;;;;;;4920585;29;20036;-87
2022/05/21 11:08:28;;;;;;;2.42;1.33;;;;;;;;;;4990313;28;20125;-87
2022/05/21 11:11:01;;;;;;;3.40;1.20;;;;;;;;;;4996960;28;20046;-83
2022/05/21 11:13:32;;;;;;;9.27;1.50;;;;;;;;;;4996059;28;20109;-82
2022/05/21 11:16:54;;;;;;;4.45;1.13;;;;;;;;;;5017584;28;20036;-85
2022/05/21 11:19:38;;;;;;;1.73;1.08;;;;;;;;;;4995290;28;20042;-86
2022/05/21 11:22:26;;;;;;;2.35;1.25;;;;;;;;;;5034951;28;20080;-86
2022/05/21 11:28:23;;;;;;;6.75;3.92;;;;;;;;;;5007543;28;20091;-86
2022/05/21 11:30:49;;;;;;;;;;;;;;;;;;5033600;28;20033;-82
2022/05/21 11:39:01;;;;;;;2.53;0.90;;;;;;;;;;5035111;28;20040;-83
2022/05/21 11:41:53;;;;;;;2.95;1.00;;;;;;;;;;5019849;28;20537;-86
2022/05/21 11:47:24;;;;;;;2.67;1.17;;;;;;;;;;4935366;29;20039;-81
2022/05/21 11:50:08;;;;;;;2.97;1.60;;;;;;;;;;5031338;28;20053;-83
2022/05/21 11:52:37;;;;;;;1.10;0.80;;;;;;;;;;5033239;28;20481;-84
2022/05/21 11:55:11;;;;;;;3.10;1.00;;;;;;;;;;5048959;28;20404;-85
2022/05/21 11:57:46;;;;;;;2.10;1.42;;;;;;;;;;5063462;28;20033;-82
2022/05/21 12:00:15;;;;;;;3.00;2.08;;;;;;;;;;5074282;28;20436;-84
2022/05/21 12:02:54;;;;;;;3.42;1.30;;;;;;;;;;5074613;28;20029;-82
2022/05/21 12:05:37;;;;;;;2.45;1.33;;;;;;;;;;5056390;28;20025;-84
2022/05/21 12:08:11;;;;;;;3.17;1.60;;;;;;;;;;5074405;28;20383;-84
2022/05/21 12:10:56;;;;;;;3.35;1.45;;;;;;;;;;5073932;28;20051;-81
2022/05/21 12:13:51;;;;;;;1.95;0.85;;;;;;;;;;5074048;28;20431;-82
2022/05/21 12:16:20;;;;;;;3.47;1.10;;;;;;;;;;5074396;28;20024;-83
2022/05/21 12:18:54;;;;;;;2.95;1.23;;;;;;;;;;5064487;28;20021;-84
2022/05/21 12:21:50;;;;;;;;;;;;;;;;;;;;;
2022/05/21 12:24:37;;;;;;;2.40;1.27;;;;;;;;;;5050589;28;20017;-85
2022/05/21 12:27:27;;;;;;;1.92;1.65;;;;;;;;;;5032295;28;20025;-85
2022/05/21 12:29:57;;;;;;;2.97;1.27;;;;;;;;;;5049956;28;20033;-83
2022/05/21 12:32:27;;;;;;;2.22;1.10;;;;;;;;;;5052505;28;20028;-84
2022/05/21 12:35:11;;;;;;;2.30;1.48;;;;;;;;;;5053328;28;20009;-83
2022/05/21 12:37:57;;;;;;;1.88;1.13;;;;;;;;;;5052570;28;20017;-84
2022/05/21 12:44:17;;;;;;;4.80;2.83;;;;;;;;;;5021690;28;20052;-84
2022/05/21 12:46:49;;;;;;;2.72;1.85;;;;;;;;;;5010432;28;20220;-83
2022/05/21 12:49:57;;;;;;;2.17;1.27;;;;;;;;;;5032263;28;20044;-84
2022/05/21 12:52:34;;;;;;;2.60;1.10;;;;;;;;;;5048213;28;20021;-82
2022/05/21 12:55:23;;;;;;;1.35;0.90;;;;;;;;;;5052440;28;20039;-83
2022/05/21 12:57:50;;;;;;;1.35;1.00;;;;;;;;;;5038831;28;20025;-83
2022/05/21 13:00:18;;;;;;;2.20;1.35;;;;;;;;;;5044820;28;20025;-81
2022/05/21 13:02:46;;;;;;;1.63;1.17;;;;;;;;;;5053571;28;20039;-81
2022/05/21 13:05:35;;;;;;;2.42;1.30;;;;;;;;;;5053243;28;20490;-82
2022/05/21 13:08:03;;;;;;;3.40;1.15;;;;;;;;;;5052875;28;20476;-84
2022/05/21 13:10:30;;;;;;;4.45;1.48;;;;;;;;;;5053412;28;20068;-81
2022/05/21 13:13:00;;;;;;;3.80;1.35;;;;;;;;;;5052899;28;20025;-81
2022/05/21 13:15:34;;;;;;;3.15;1.20;;;;;;;;;;5053065;28;20051;-78
2022/05/21 13:18:19;;;;;;;1.80;1.20;;;;;;;;;;5050894;28;20082;-83
2022/05/21 13:20:50;;;;;;;1.73;1.00;;;;;;;;;;5052564;28;20021;-79
2022/05/21 13:23:19;;;;;;;3.47;1.35;;;;;;;;;;5052652;28;20025;-79
2022/05/21 13:25:50;;;;;;;3.25;1.30;;;;;;;;;;5053014;28;20112;-78
2022/05/21 13:28:19;;;;;;;2.88;1.30;;;;;;;;;;5052753;28;20024;-81
2022/05/21 13:30:49;;;;;;;2.70;1.20;;;;;;;;;;5052902;28;20060;-83
2022/05/21 13:33:33;;;;;;;2.10;1.17;;;;;;;;;;5052510;28;20108;-82
2022/05/21 13:36:01;;;;;;;5.05;2.80;;;;;;;;;;5052321;28;20029;-82
2022/05/21 13:38:35;;;;;;;3.85;1.88;;;;;;;;;;5052524;28;20033;-83
2022/05/21 13:41:05;;;;;;;3.13;1.48;;;;;;;;;;5052459;28;20056;-80
2022/05/21 13:43:42;;;;;;;2.20;1.02;;;;;;;;;;5052535;28;20040;-81
2022/05/21 13:46:22;;;;;;;2.85;1.40;;;;;;;;;;5042855;28;20476;-81
2022/05/21 13:48:51;;;;;;;3.20;1.20;;;;;;;;;;5052299;28;20391;-85
2022/05/21 13:51:18;;;;;;;3.90;1.58;;;;;;;;;;5052490;28;20107;-81
2022/05/21 13:53:49;;;;;;;3.30;1.50;;;;;;;;;;5048092;28;20036;-83
2022/05/21 13:56:33;;;;;;;2.30;1.65;;;;;;;;;;5052264;28;20049;-79
2022/05/21 13:59:18;;;;;;;6.05;1.80;;;;;;;;;;5049998;28;20025;-81
2022/05/21 14:02:04;;;;;;;3.85;2.05;;;;;;;;;;5052450;28;20029;-83
2022/05/21 14:04:35;;;;;;;3.13;1.70;;;;;;;;;;5033015;28;20028;-85
2022/05/21 14:07:02;;;;;;;5.13;1.30;;;;;;;;;;5051073;28;20484;-78
2022/05/21 14:09:29;;;;;;;4.78;1.75;;;;;;;;;;5052049;28;20025;-79
2022/05/21 14:12:14;;;;;;;5.63;4.25;;;;;;;;;;5052014;28;20027;-85
2022/05/21 14:14:59;;;;;;;2.58;1.67;;;;;;;;;;5047260;28;20025;-82
2022/05/21 14:17:33;;;;;;;6.05;3.97;;;;;;;;;;5052584;28;20026;-84
2022/05/21 14:20:29;;;;;;;3.15;1.90;;;;;;;;;;5050246;28;20396;-82
2022/05/21 14:22:55;;;;;;;4.03;1.50;;;;;;;;;;5049392;28;20037;-84
2022/05/21 14:25:29;;;;;;;3.92;2.10;;;;;;;;;;5053057;28;20051;-83
2022/05/21 14:28:07;;;;;;;9.40;1.90;;;;;;;;;;5050343;28;20032;-81
2022/05/21 14:30:35;;;;;;;3.10;1.77;;;;;;;;;;5047046;28;20037;-83
2022/05/21 14:33:20;;;;;;;4.32;2.30;;;;;;;;;;5053202;28;20021;-85
2022/05/21 14:35:47;;;;;;;4.32;2.70;;;;;;;;;;5052911;28;20110;-84
2022/05/21 14:38:18;;;;;;;4.60;2.63;;;;;;;;;;5044462;28;20021;-80
2022/05/21 14:40:50;;;;;;;3.15;2.17;;;;;;;;;;5052481;28;20025;-81
2022/05/21 14:43:24;;;;;;;5.57;2.13;;;;;;;;;;5044039;28;20031;-80
2022/05/21 14:45:50;;;;;;;3.00;1.30;;;;;;;;;;5021868;28;20029;-82
2022/05/21 14:48:16;;;;;;;3.80;1.65;;;;;;;;;;5052499;28;20045;-83
2022/05/21 14:53:48;;;;;;;3.33;2.13;;;;;;;;;;5056361;28;20100;-81
2022/05/21 14:56:34;;;;;;;4.40;2.00;;;;;;;;;;5056441;28;20045;-82
2022/05/21 14:59:03;;;;;;;7.32;2.53;;;;;;;;;;5038362;28;20017;-78
2022/05/21 15:01:30;;;;;;;5.05;2.72;;;;;;;;;;5039501;28;20032;-79
2022/05/21 15:03:56;;;;;;;4.55;2.25;;;;;;;;;;5026624;28;20372;-82
2022/05/21 15:06:31;;;;;;;5.72;1.83;;;;;;;;;;5051643;28;20025;-80
2022/05/21 15:09:05;;;;;;;3.78;1.70;;;;;;;;;;5035536;28;20023;-81
2022/05/21 15:11:31;;;;;;;3.13;1.80;;;;;;;;;;5050083;28;20021;-83
2022/05/21 15:13:57;;;;;;;4.90;2.35;;;;;;;;;;5054952;28;20025;-80
2022/05/21 15:16:23;;;;;;;5.00;1.90;;;;;;;;;;5053620;28;20442;-80
2022/05/21 15:18:50;;;;;;;6.32;1.52;;;;;;;;;;5045697;28;20021;-81
2022/05/21 15:21:21;;;;;;;4.20;1.70;;;;;;;;;;5053805;28;20029;-83
2022/05/21 15:23:47;;;;;;;2.83;1.70;;;;;;;;;;5054868;28;20083;-81
2022/05/21 15:26:13;;;;;;;6.35;1.45;;;;;;;;;;5053084;28;20044;-84
2022/05/21 15:28:40;;;;;;;4.75;1.80;;;;;;;;;;5044047;28;20023;-81
2022/05/21 15:31:07;;;;;;;5.10;2.35;;;;;;;;;;5050723;28;20029;-82
2022/05/21 15:33:42;;;;;;;3.95;2.00;;;;;;;;;;5053654;28;20025;-84
2022/05/21 15:36:08;;;;;;;3.30;1.80;;;;;;;;;;5051906;28;20136;-80
2022/05/21 15:38:41;;;;;;;3.60;2.03;;;;;;;;;;5043106;28;20399;-81
2022/05/21 15:41:14;;;;;;;4.57;1.95;;;;;;;;;;5048445;28;20074;-81
2022/05/21 15:43:44;;;;;;;2.43;1.57;;;;;;;;;;5053592;28;20017;-88
2022/05/21 15:46:11;;;;;;;5.88;2.15;;;;;;;;;;5036803;28;20257;-80
2022/05/21 15:48:39;;;;;;;2.78;1.85;;;;;;;;;;5055199;28;20451;-80
2022/05/21 15:51:08;;;;;;;3.05;1.52;;;;;;;;;;5037425;28;20057;-83
2022/05/21 15:53:35;;;;;;;3.60;1.90;;;;;;;;;;5055039;28;20037;-80
2022/05/21 15:56:02;;;;;;;2.53;1.38;;;;;;;;;;5054740;28;20056;-78
2022/05/21 15:58:28;;;;;;;2.53;1.73;;;;;;;;;;5055002;28;20019;-78
2022/05/21 16:00:55;;;;;;;3.28;1.90;;;;;;;;;;5054655;28;20025;-81
2022/05/21 16:03:40;;;;;;;2.35;2.13;;;;;;;;;;5037641;28;20051;-82
2022/05/21 16:06:17;;;;;;;3.65;2.10;;;;;;;;;;5055679;28;20052;-85
2022/05/21 16:08:43;;;;;;;8.40;2.00;;;;;;;;;;5036959;28;20029;-79
2022/05/21 16:11:14;;;;;;;3.25;1.58;;;;;;;;;;5054681;28;20024;-80
2022/05/21 16:13:40;;;;;;;4.78;3.72;;;;;;;;;;5036539;28;20021;-82
2022/05/21 16:16:06;;;;;;;13.18;9.73;;;;;;;;;;5037235;28;20063;-85
2022/05/21 16:18:32;;;;;;;15.65;10.63;;;;;;;;;;5037387;28;20029;-83
2022/05/21 16:20:58;;;;;;;20.65;12.10;;;;;;;;;;5054900;28;20479;-83
2022/05/21 16:23:30;;;;;;;14.20;9.45;;;;;;;;;;5038822;28;20033;-87
2022/05/21 16:25:56;;;;;;;14.82;8.30;;;;;;;;;;5055637;28;20025;-84
2022/05/21 16:28:25;;;;;;;9.25;6.10;;;;;;;;;;5037318;28;20039;-80
2022/05/21 16:30:54;;;;;;;14.32;9.05;;;;;;;;;;5054792;28;20427;-84
2022/05/21 16:33:23;;;;;;;14.23;10.25;;;;;;;;;;5054906;28;20096;-82
2022/05/21 16:35:49;;;;;;;6.57;4.00;;;;;;;;;;5054676;28;20017;-80
2022/05/21 16:38:15;;;;;;;6.30;2.55;;;;;;;;;;5037399;28;20025;-81
2022/05/21 16:40:41;;;;;;;2.40;2.00;;;;;;;;;;5036007;28;20021;-83
2022/05/21 16:43:25;;;;;;;4.78;1.67;;;;;;;;;;5053710;28;20100;-83
2022/05/21 16:46:13;;;;;;;3.90;2.05;;;;;;;;;;5053737;28;20048;-84
2022/05/21 16:48:39;;;;;;;3.70;2.15;;;;;;;;;;5035669;28;20078;-83
2022/05/21 16:51:08;;;;;;;5.03;1.98;;;;;;;;;;5053336;28;20365;-82
2022/05/21 16:53:34;;;;;;;2.78;2.00;;;;;;;;;;5035658;28;20498;-85
2022/05/21 16:56:05;;;;;;;4.25;1.90;;;;;;;;;;5053151;28;20458;-84
2022/05/21 16:58:32;;;;;;;3.17;2.25;;;;;;;;;;5053622;28;20056;-84
2022/05/21 17:00:58;;;;;;;4.50;2.90;;;;;;;;;;5053469;28;20028;-83
2022/05/21 17:03:25;;;;;;;3.20;2.65;;;;;;;;;;5035995;28;20056;-83
2022/05/21 17:05:51;;;;;;;4.80;2.90;;;;;;;;;;5053159;28;20075;-82
2022/05/21 17:08:17;;;;;;;3.15;2.10;;;;;;;;;;5053148;28;20025;-82
2022/05/21 17:10:44;;;;;;;4.65;2.28;;;;;;;;;;5053276;28;20028;-83
2022/05/21 17:13:10;;;;;;;3.10;1.95;;;;;;;;;;5052363;28;20036;-82
2022/05/21 17:15:36;;;;;;;2.85;1.90;;;;;;;;;;5053085;28;20029;-82
2022/05/21 17:18:02;;;;;;;5.03;2.30;;;;;;;;;;5053034;28;20033;-85
2022/05/21 17:20:28;;;;;;;4.97;2.47;;;;;;;;;;5035105;28;20387;-82
2022/05/21 17:22:55;;;;;;;3.63;2.15;;;;;;;;;;5052874;28;20021;-81
2022/05/21 17:25:21;;;;;;;4.25;2.03;;;;;;;;;;5035887;28;20392;-81
2022/05/21 17:33:20;;;;;;;3.88;2.33;;;;;;;;;;5053112;28;20055;-82
2022/05/21 17:36:08;;;;;;;3.15;1.73;;;;;;;;;;5052697;28;20128;-82
2022/05/21 17:38:53;;;;;;;5.05;2.15;;;;;;;;;;5052736;28;20027;-81
2022/05/21 17:41:21;;;;;;;3.30;1.52;;;;;;;;;;5052563;28;20021;-82
2022/05/21 17:43:47;;;;;;;4.72;2.28;;;;;;;;;;5052869;28;20486;-83
2022/05/21 17:46:14;;;;;;;4.43;2.22;;;;;;;;;;5052499;28;20025;-81
2022/05/21 17:48:41;;;;;;;7.30;2.33;;;;;;;;;;5052607;28;20104;-83
2022/05/21 17:51:09;;;;;;;6.13;2.35;;;;;;;;;;5034638;28;20024;-81
2022/05/21 17:53:35;;;;;;;5.85;2.50;;;;;;;;;;5052486;28;20048;-81
2022/05/21 17:56:01;;;;;;;5.30;2.38;;;;;;;;;;5052122;28;20052;-81
2022/05/21 17:58:28;;;;;;;4.13;2.00;;;;;;;;;;5052390;28;20128;-81
2022/05/21 18:00:55;;;;;;;4.65;2.55;;;;;;;;;;5052284;28;20103;-80
2022/05/21 18:03:24;;;;;;;4.05;2.10;;;;;;;;;;5052398;28;20047;-83
2022/05/21 18:05:51;;;;;;;3.95;2.05;;;;;;;;;;5052547;28;20028;-81
2022/05/21 18:08:18;;;;;;;3.83;2.13;;;;;;;;;;5034408;28;20045;-82
2022/05/21 18:10:48;;;;;;;5.63;2.22;;;;;;;;;;5052462;28;20032;-82
2022/05/21 18:13:14;;;;;;;3.65;2.03;;;;;;;;;;5034640;28;20048;-82
2022/05/21 18:21:16;;;;;;;4.13;1.73;;;;;;;;;;5052310;28;20127;-80
2022/05/21 18:23:46;;;;;;;6.13;2.45;;;;;;;;;;5053900;28;20551;-81
2022/05/21 18:26:12;;;;;;;4.80;2.22;;;;;;;;;;5038451;28;20089;-81
2022/05/21 18:28:40;;;;;;;4.75;2.13;;;;;;;;;;5056146;28;20105;-82
2022/05/21 18:31:08;;;;;;;4.97;2.03;;;;;;;;;;5056211;28;20021;-85
2022/05/21 18:33:34;;;;;;;3.42;2.13;;;;;;;;;;5038020;28;20037;-82
2022/05/21 18:36:01;;;;;;;4.00;1.90;;;;;;;;;;5056128;28;20025;-83
2022/05/21 18:38:27;;;;;;;3.65;1.70;;;;;;;;;;5038186;28;20032;-82
2022/05/21 18:40:54;;;;;;;5.28;2.03;;;;;;;;;;5038190;28;20028;-84
2022/05/21 18:43:20;;;;;;;5.50;2.00;;;;;;;;;;5038760;28;20017;-82
2022/05/21 18:45:49;;;;;;;3.80;2.75;;;;;;;;;;5056020;28;20101;-82
2022/05/21 18:48:35;;;;;;;6.40;5.20;;;;;;;;;;5038462;28;20024;-82
2022/05/21 18:51:11;;;;;;;17.48;11.98;;;;;;;;;;5037875;28;20388;-83
2022/05/21 18:53:39;;;;;;;5.95;2.88;;;;;;;;;;5037464;28;20041;-84
2022/05/21 18:58:54;;;;;;;6.40;3.65;;;;;;;;;;5055842;28;20059;-84
2022/05/21 19:04:26;;;;;;;4.22;2.72;;;;;;;;;;5000316;28;20376;-83
2022/05/21 19:09:56;;;;;;;4.22;2.97;;;;;;;;;;5013636;28;20026;-81
2022/05/21 19:12:23;;;;;;;4.57;2.58;;;;;;;;;;5013968;28;20109;-83
2022/05/21 19:20:46;;;;;;;2.50;1.73;;;;;;;;;;5001964;28;20036;-84
2022/05/21 19:23:12;;;;;;;2.72;1.90;;;;;;;;;;4996756;28;20038;-83
2022/05/21 19:25:38;;;;;;;4.05;2.13;;;;;;;;;;5013706;28;20034;-83
2022/05/21 19:28:05;;;;;;;3.20;1.95;;;;;;;;;;5054917;28;20052;-81
2022/05/21 19:30:31;;;;;;;3.00;1.80;;;;;;;;;;5037270;28;20102;-81
2022/05/21 19:32:57;;;;;;;3.45;1.95;;;;;;;;;;5054715;28;20059;-82
2022/05/21 19:35:23;;;;;;;3.78;2.08;;;;;;;;;;5054469;28;20105;-84
2022/05/21 19:37:49;;;;;;;3.42;2.10;;;;;;;;;;5055020;28;20029;-85
2022/05/21 19:43:00;;;;;;;2.92;2.10;;;;;;;;;;5054679;28;20040;-83
2022/05/21 19:45:26;;;;;;;3.22;1.80;;;;;;;;;;5054694;28;20518;-85
2022/05/21 19:47:52;;;;;;;5.05;2.20;;;;;;;;;;5054531;28;20032;-82
2022/05/21 19:50:22;;;;;;;2.67;1.85;;;;;;;;;;5054669;28;20074;-84
2022/05/21 19:52:49;;;;;;;3.17;2.30;;;;;;;;;;5054255;28;20368;-80
2022/05/21 19:55:15;;;;;;;4.15;2.08;;;;;;;;;;5054359;28;20059;-82
2022/05/21 19:57:41;;;;;;;4.10;1.90;;;;;;;;;;5054313;28;20050;-82
2022/05/21 20:00:08;;;;;;;2.88;1.85;;;;;;;;;;5036515;28;20017;-83
2022/05/21 20:02:36;;;;;;;2.92;2.03;;;;;;;;;;5054379;28;20058;-82
2022/05/21 20:05:03;;;;;;;6.03;2.40;;;;;;;;;;5054296;28;20017;-79
2022/05/21 20:07:49;;;;;;;3.67;2.10;;;;;;;;;;5054593;28;20408;-82
2022/05/21 20:10:24;;;;;;;4.15;3.22;;;;;;;;;;5054452;28;20490;-87
2022/05/21 20:12:50;;;;;;;3.65;2.85;;;;;;;;;;5054303;28;20057;-81
2022/05/21 20:15:16;;;;;;;3.38;2.63;;;;;;;;;;5054739;28;20418;-82
2022/05/21 20:17:51;;;;;;;3.83;2.30;;;;;;;;;;5036360;28;20021;-82
2022/05/21 20:23:44;;;;;;;;;;;;;;;;;;;;;
2022/05/21 20:26:15;;;;;;;5.75;3.20;;;;;;;;;;5012932;28;20032;-81
2022/05/21 20:29:01;;;;;;;8.27;3.25;;;;;;;;;;5036016;28;20025;-82
2022/05/21 20:31:36;;;;;;;5.25;2.83;;;;;;;;;;5053690;28;20025;-82
2022/05/21 20:34:12;;;;;;;4.32;2.95;;;;;;;;;;5035962;28;20098;-81
2022/05/21 20:37:08;;;;;;;;;;;;;;;;;;;;;
2022/05/21 20:39:35;;;;;;;4.28;3.40;;;;;;;;;;5053768;28;20029;-81
2022/05/21 20:42:06;;;;;;;5.82;4.45;;;;;;;;;;5036005;28;20373;-84
2022/05/21 20:53:58;;;;;;;;;;;;;;;;;;;;;
2022/05/21 20:56:55;;;;;;;;;;;;;;;;;;;;;
2022/05/21 20:59:24;;;;;;;3.92;2.28;;;;;;;;;;5034888;28;20035;-83
2022/05/21 21:01:51;;;;;;;3.78;2.60;;;;;;;;;;5053367;28;20036;-85
2022/05/21 21:04:19;;;;;;;3.38;2.50;;;;;;;;;;5053761;28;20017;-83
2022/05/21 21:06:48;;;;;;;4.47;2.45;;;;;;;;;;5035855;28;20098;-84
2022/05/21 21:09:16;;;;;;;4.38;2.63;;;;;;;;;;5035213;28;20110;-84